sensor_id;sensor_type;location;lat;lon;timestamp;pressure;altitude;pressure_sealevel;temperature;humidity
11077;BME280;5591;42.626;23.380;2023-04-25T00:01:01;93456.50;;;13.41;100.00
11077;BME280;5591;42.626;23.380;2023-04-25T00:03:29;93458.66;;;13.44;100.00
11077;BME280;5591;42.626;23.380;2023-04-25T00:05:56;93452.56;;;13.73;100.00
11077;BME280;5591;42.626;23.380;2023-04-25T00:08:23;93444.31;;;13.70;100.00
11077;BME280;5591;42.626;23.380;2023-04-25T00:10:51;93443.38;;;13.64;100.00
11077;BME280;5591;42.626;23.380;2023-04-25T00:13:18;93445.66;;;13.61;100.00
11077;BME280;5591;42.626;23.380;2023-04-25T00:15:45;93427.97;;;13.61;100.00
11077;BME280;5591;42.626;23.380;2023-04-25T00:18:13;93423.72;;;13.49;100.00
11077;BME280;5591;42.626;23.380;2023-04-25T00:20:40;93422.59;;;13.56;100.00
11077;BME280;5591;42.626;23.380;2023-04-25T00:23:12;93411.91;;;13.51;100.00
11077;BME280;5591;42.626;23.380;2023-04-25T00:25:42;93415.06;;;13.60;100.00
11077;BME280;5591;42.626;23.380;2023-04-25T00:28:11;93400.84;;;13.61;100.00
11077;BME280;5591;42.626;23.380;2023-04-25T00:30:38;93395.41;;;13.44;100.00
11077;BME280;5591;42.626;23.380;2023-04-25T00:33:05;93391.69;;;13.34;100.00
11077;BME280;5591;42.626;23.380;2023-04-25T00:35:32;93392.22;;;13.42;100.00
11077;BME280;5591;42.626;23.380;2023-04-25T00:37:59;93389.13;;;13.45;100.00
11077;BME280;5591;42.626;23.380;2023-04-25T00:40:26;93380.53;;;13.09;100.00
11077;BME280;5591;42.626;23.380;2023-04-25T00:42:53;93372.63;;;12.91;100.00
11077;BME280;5591;42.626;23.380;2023-04-25T00:45:21;93364.56;;;13.04;100.00
11077;BME280;5591;42.626;23.380;2023-04-25T00:47:51;93264.13;;;12.59;100.00
11077;BME280;5591;42.626;23.380;2023-04-25T00:50:18;93357.84;;;13.19;100.00
11077;BME280;5591;42.626;23.380;2023-04-25T00:52:44;93353.97;;;12.92;100.00
11077;BME280;5591;42.626;23.380;2023-04-25T00:55:12;93345.66;;;12.95;100.00
11077;BME280;5591;42.626;23.380;2023-04-25T00:57:39;93340.44;;;13.07;100.00
11077;BME280;5591;42.626;23.380;2023-04-25T01:00:08;93316.53;;;12.90;100.00
11077;BME280;5591;42.626;23.380;2023-04-25T01:02:37;93349.63;;;13.27;100.00
11077;BME280;5591;42.626;23.380;2023-04-25T01:05:04;93324.75;;;13.12;100.00
11077;BME280;5591;42.626;23.380;2023-04-25T01:07:31;93335.81;;;13.43;100.00
11077;BME280;5591;42.626;23.380;2023-04-25T01:09:58;93343.91;;;13.30;100.00
11077;BME280;5591;42.626;23.380;2023-04-25T01:12:25;93332.75;;;13.05;100.00
11077;BME280;5591;42.626;23.380;2023-04-25T01:14:52;93345.03;;;12.64;100.00
11077;BME280;5591;42.626;23.380;2023-04-25T01:17:19;93343.66;;;12.43;100.00
11077;BME280;5591;42.626;23.380;2023-04-25T01:19:47;93307.91;;;12.54;100.00
11077;BME280;5591;42.626;23.380;2023-04-25T01:22:16;93319.56;;;12.94;100.00
11077;BME280;5591;42.626;23.380;2023-04-25T01:24:43;93314.63;;;12.97;100.00
11077;BME280;5591;42.626;23.380;2023-04-25T01:27:10;93310.38;;;12.96;100.00
11077;BME280;5591;42.626;23.380;2023-04-25T01:29:38;93319.16;;;13.20;100.00
11077;BME280;5591;42.626;23.380;2023-04-25T01:32:05;93328.09;;;13.19;100.00
11077;BME280;5591;42.626;23.380;2023-04-25T01:34:32;93312.69;;;12.75;100.00
11077;BME280;5591;42.626;23.380;2023-04-25T01:37:00;93336.09;;;12.83;100.00
11077;BME280;5591;42.626;23.380;2023-04-25T01:39:28;93298.72;;;12.45;100.00
11077;BME280;5591;42.626;23.380;2023-04-25T01:41:55;93308.50;;;12.56;100.00
11077;BME280;5591;42.626;23.380;2023-04-25T01:44:22;93310.34;;;12.85;100.00
11077;BME280;5591;42.626;23.380;2023-04-25T01:46:49;93316.28;;;12.80;100.00
11077;BME280;5591;42.626;23.380;2023-04-25T01:49:16;93330.38;;;12.21;100.00
11077;BME280;5591;42.626;23.380;2023-04-25T01:51:43;93340.25;;;12.25;100.00
11077;BME280;5591;42.626;23.380;2023-04-25T01:54:10;93327.63;;;12.16;100.00
11077;BME280;5591;42.626;23.380;2023-04-25T01:56:39;93342.75;;;12.20;100.00
11077;BME280;5591;42.626;23.380;2023-04-25T01:59:06;93300.28;;;11.81;100.00
11077;BME280;5591;42.626;23.380;2023-04-25T02:01:33;93328.78;;;12.02;100.00
11077;BME280;5591;42.626;23.380;2023-04-25T02:03:59;93321.91;;;12.19;100.00
11077;BME280;5591;42.626;23.380;2023-04-25T02:06:26;93329.34;;;12.22;100.00
11077;BME280;5591;42.626;23.380;2023-04-25T02:08:53;93331.03;;;12.16;100.00
11077;BME280;5591;42.626;23.380;2023-04-25T02:11:20;93330.47;;;12.14;100.00
11077;BME280;5591;42.626;23.380;2023-04-25T02:13:48;93323.34;;;12.32;100.00
11077;BME280;5591;42.626;23.380;2023-04-25T02:16:15;93323.00;;;12.29;100.00
11077;BME280;5591;42.626;23.380;2023-04-25T02:18:42;93314.16;;;12.24;100.00
11077;BME280;5591;42.626;23.380;2023-04-25T02:21:10;93301.84;;;12.53;100.00
11077;BME280;5591;42.626;23.380;2023-04-25T02:23:37;93301.44;;;12.21;100.00
11077;BME280;5591;42.626;23.380;2023-04-25T02:26:04;93285.88;;;12.37;100.00
11077;BME280;5591;42.626;23.380;2023-04-25T02:28:30;93301.09;;;12.17;100.00
11077;BME280;5591;42.626;23.380;2023-04-25T02:30:59;93289.25;;;12.26;100.00
11077;BME280;5591;42.626;23.380;2023-04-25T02:33:25;93286.63;;;12.55;100.00
11077;BME280;5591;42.626;23.380;2023-04-25T02:35:52;93276.72;;;12.39;100.00
11077;BME280;5591;42.626;23.380;2023-04-25T02:38:19;93290.53;;;12.53;100.00
11077;BME280;5591;42.626;23.380;2023-04-25T02:40:46;93296.38;;;12.55;100.00
11077;BME280;5591;42.626;23.380;2023-04-25T02:43:12;93294.94;;;12.41;100.00
11077;BME280;5591;42.626;23.380;2023-04-25T02:45:39;93294.03;;;12.47;100.00
11077;BME280;5591;42.626;23.380;2023-04-25T02:48:07;93288.00;;;12.46;100.00
11077;BME280;5591;42.626;23.380;2023-04-25T02:50:34;93298.16;;;12.43;100.00
11077;BME280;5591;42.626;23.380;2023-04-25T02:53:01;93303.00;;;11.92;100.00
11077;BME280;5591;42.626;23.380;2023-04-25T02:55:28;93275.00;;;11.80;100.00
11077;BME280;5591;42.626;23.380;2023-04-25T02:57:54;93275.47;;;11.95;100.00
11077;BME280;5591;42.626;23.380;2023-04-25T03:00:21;93277.66;;;12.16;100.00
11077;BME280;5591;42.626;23.380;2023-04-25T03:02:48;93279.25;;;11.99;100.00
11077;BME280;5591;42.626;23.380;2023-04-25T03:05:17;93274.16;;;12.04;100.00
11077;BME280;5591;42.626;23.380;2023-04-25T03:07:44;93272.22;;;12.11;100.00
11077;BME280;5591;42.626;23.380;2023-04-25T03:10:11;93255.50;;;12.23;100.00
11077;BME280;5591;42.626;23.380;2023-04-25T03:12:38;93261.59;;;12.35;100.00
11077;BME280;5591;42.626;23.380;2023-04-25T03:15:06;93267.34;;;12.43;100.00
11077;BME280;5591;42.626;23.380;2023-04-25T03:17:33;93267.44;;;12.37;100.00
11077;BME280;5591;42.626;23.380;2023-04-25T03:20:00;93265.94;;;12.30;100.00
11077;BME280;5591;42.626;23.380;2023-04-25T03:22:28;93261.94;;;12.09;100.00
11077;BME280;5591;42.626;23.380;2023-04-25T03:24:55;93268.84;;;12.39;100.00
11077;BME280;5591;42.626;23.380;2023-04-25T03:27:22;93262.06;;;12.32;100.00
11077;BME280;5591;42.626;23.380;2023-04-25T03:29:48;93264.88;;;12.48;100.00
11077;BME280;5591;42.626;23.380;2023-04-25T03:32:15;93258.25;;;12.28;100.00
11077;BME280;5591;42.626;23.380;2023-04-25T03:34:42;93262.38;;;12.06;100.00
11077;BME280;5591;42.626;23.380;2023-04-25T03:37:09;93264.31;;;12.29;100.00
11077;BME280;5591;42.626;23.380;2023-04-25T03:39:37;93264.34;;;12.40;100.00
11077;BME280;5591;42.626;23.380;2023-04-25T03:42:04;93257.28;;;12.40;100.00
11077;BME280;5591;42.626;23.380;2023-04-25T03:44:31;93264.44;;;12.33;100.00
11077;BME280;5591;42.626;23.380;2023-04-25T03:46:57;93273.25;;;11.92;100.00
11077;BME280;5591;42.626;23.380;2023-04-25T03:49:24;93263.19;;;12.25;100.00
11077;BME280;5591;42.626;23.380;2023-04-25T03:51:51;93266.09;;;12.17;100.00
11077;BME280;5591;42.626;23.380;2023-04-25T03:54:18;93266.13;;;12.46;100.00
11077;BME280;5591;42.626;23.380;2023-04-25T03:56:46;93263.38;;;12.41;100.00
11077;BME280;5591;42.626;23.380;2023-04-25T03:59:13;93249.41;;;12.93;100.00
11077;BME280;5591;42.626;23.380;2023-04-25T04:01:40;93251.78;;;13.01;100.00
11077;BME280;5591;42.626;23.380;2023-04-25T04:04:07;93253.19;;;13.38;100.00
11077;BME280;5591;42.626;23.380;2023-04-25T04:06:34;93258.34;;;13.44;100.00
11077;BME280;5591;42.626;23.380;2023-04-25T04:09:01;93256.75;;;13.43;100.00
11077;BME280;5591;42.626;23.380;2023-04-25T04:11:28;93251.69;;;13.30;100.00
11077;BME280;5591;42.626;23.380;2023-04-25T04:13:58;93261.44;;;13.53;100.00
11077;BME280;5591;42.626;23.380;2023-04-25T04:16:25;93282.88;;;13.45;100.00
11077;BME280;5591;42.626;23.380;2023-04-25T04:18:52;93277.56;;;13.10;100.00
11077;BME280;5591;42.626;23.380;2023-04-25T04:21:18;93280.94;;;13.52;100.00
11077;BME280;5591;42.626;23.380;2023-04-25T04:23:45;93260.19;;;13.44;100.00
11077;BME280;5591;42.626;23.380;2023-04-25T04:26:13;93276.47;;;13.52;100.00
11077;BME280;5591;42.626;23.380;2023-04-25T04:28:40;93296.03;;;13.33;100.00
11077;BME280;5591;42.626;23.380;2023-04-25T04:31:08;93284.53;;;13.05;100.00
11077;BME280;5591;42.626;23.380;2023-04-25T04:33:35;93272.41;;;13.15;100.00
11077;BME280;5591;42.626;23.380;2023-04-25T04:36:03;93275.19;;;13.20;100.00
11077;BME280;5591;42.626;23.380;2023-04-25T04:38:33;93280.69;;;13.76;100.00
11077;BME280;5591;42.626;23.380;2023-04-25T04:40:59;93285.50;;;13.79;100.00
11077;BME280;5591;42.626;23.380;2023-04-25T04:43:28;93282.88;;;13.68;100.00
11077;BME280;5591;42.626;23.380;2023-04-25T04:45:55;93283.22;;;13.83;100.00
11077;BME280;5591;42.626;23.380;2023-04-25T04:48:24;93285.81;;;14.06;100.00
11077;BME280;5591;42.626;23.380;2023-04-25T04:50:51;93272.06;;;14.04;100.00
11077;BME280;5591;42.626;23.380;2023-04-25T04:53:17;93289.13;;;14.36;100.00
11077;BME280;5591;42.626;23.380;2023-04-25T04:55:44;93279.31;;;14.48;100.00
11077;BME280;5591;42.626;23.380;2023-04-25T04:58:11;93242.03;;;13.93;100.00
11077;BME280;5591;42.626;23.380;2023-04-25T05:00:38;93216.63;;;13.64;100.00
11077;BME280;5591;42.626;23.380;2023-04-25T05:03:05;93249.63;;;13.78;100.00
11077;BME280;5591;42.626;23.380;2023-04-25T05:05:33;93292.47;;;13.97;100.00
11077;BME280;5591;42.626;23.380;2023-04-25T05:08:00;93290.00;;;13.79;100.00
11077;BME280;5591;42.626;23.380;2023-04-25T05:10:27;93308.56;;;13.95;100.00
11077;BME280;5591;42.626;23.380;2023-04-25T05:12:53;93306.03;;;14.00;100.00
11077;BME280;5591;42.626;23.380;2023-04-25T05:15:20;93308.19;;;14.03;100.00
11077;BME280;5591;42.626;23.380;2023-04-25T05:17:47;93299.81;;;13.37;100.00
11077;BME280;5591;42.626;23.380;2023-04-25T05:20:14;93303.06;;;13.51;100.00
11077;BME280;5591;42.626;23.380;2023-04-25T05:22:42;93319.44;;;13.99;100.00
11077;BME280;5591;42.626;23.380;2023-04-25T05:25:09;93319.44;;;14.10;100.00
11077;BME280;5591;42.626;23.380;2023-04-25T05:27:35;93309.44;;;14.12;100.00
11077;BME280;5591;42.626;23.380;2023-04-25T05:30:03;93301.06;;;14.27;100.00
11077;BME280;5591;42.626;23.380;2023-04-25T05:32:31;93301.91;;;13.70;100.00
11077;BME280;5591;42.626;23.380;2023-04-25T05:34:58;93322.06;;;13.53;100.00
11077;BME280;5591;42.626;23.380;2023-04-25T05:37:24;93322.09;;;14.22;100.00
11077;BME280;5591;42.626;23.380;2023-04-25T05:39:53;93320.66;;;14.42;100.00
11077;BME280;5591;42.626;23.380;2023-04-25T05:42:19;93322.28;;;14.43;100.00
11077;BME280;5591;42.626;23.380;2023-04-25T05:44:46;93308.31;;;14.20;100.00
11077;BME280;5591;42.626;23.380;2023-04-25T05:47:13;93334.34;;;14.16;100.00
11077;BME280;5591;42.626;23.380;2023-04-25T05:49:40;93331.09;;;14.49;100.00
11077;BME280;5591;42.626;23.380;2023-04-25T05:52:07;93328.69;;;14.87;100.00
11077;BME280;5591;42.626;23.380;2023-04-25T05:54:34;93335.84;;;15.02;100.00
11077;BME280;5591;42.626;23.380;2023-04-25T05:57:02;93329.31;;;15.21;100.00
11077;BME280;5591;42.626;23.380;2023-04-25T05:59:29;93330.69;;;15.24;100.00
11077;BME280;5591;42.626;23.380;2023-04-25T06:01:55;93331.53;;;15.41;100.00
11077;BME280;5591;42.626;23.380;2023-04-25T06:04:22;93333.25;;;15.63;100.00
11077;BME280;5591;42.626;23.380;2023-04-25T06:06:49;93323.78;;;15.67;100.00
11077;BME280;5591;42.626;23.380;2023-04-25T06:09:16;93330.09;;;15.33;100.00
11077;BME280;5591;42.626;23.380;2023-04-25T06:11:42;93336.44;;;15.21;100.00
11077;BME280;5591;42.626;23.380;2023-04-25T06:14:10;93338.56;;;15.35;100.00
11077;BME280;5591;42.626;23.380;2023-04-25T06:16:37;93325.03;;;15.48;100.00
11077;BME280;5591;42.626;23.380;2023-04-25T06:19:04;93325.84;;;15.04;100.00
11077;BME280;5591;42.626;23.380;2023-04-25T06:21:31;93329.31;;;15.33;100.00
11077;BME280;5591;42.626;23.380;2023-04-25T06:23:57;93335.06;;;15.46;100.00
11077;BME280;5591;42.626;23.380;2023-04-25T06:26:24;93306.63;;;15.09;100.00
11077;BME280;5591;42.626;23.380;2023-04-25T06:28:51;93336.84;;;15.13;100.00
11077;BME280;5591;42.626;23.380;2023-04-25T06:31:19;93341.56;;;15.39;100.00
11077;BME280;5591;42.626;23.380;2023-04-25T06:33:46;93338.16;;;14.99;100.00
11077;BME280;5591;42.626;23.380;2023-04-25T06:36:13;93337.31;;;15.38;100.00
11077;BME280;5591;42.626;23.380;2023-04-25T06:38:40;93254.47;;;15.04;100.00
11077;BME280;5591;42.626;23.380;2023-04-25T06:41:07;93336.44;;;15.98;100.00
11077;BME280;5591;42.626;23.380;2023-04-25T06:43:34;93335.91;;;16.34;100.00
11077;BME280;5591;42.626;23.380;2023-04-25T06:46:00;93351.19;;;15.94;100.00
11077;BME280;5591;42.626;23.380;2023-04-25T06:48:29;93348.47;;;15.89;100.00
11077;BME280;5591;42.626;23.380;2023-04-25T06:50:55;93349.66;;;15.49;100.00
11077;BME280;5591;42.626;23.380;2023-04-25T06:53:22;93354.13;;;15.48;100.00
11077;BME280;5591;42.626;23.380;2023-04-25T06:55:49;93344.31;;;16.31;100.00
11077;BME280;5591;42.626;23.380;2023-04-25T06:58:16;93339.88;;;16.75;100.00
11077;BME280;5591;42.626;23.380;2023-04-25T07:00:43;93359.72;;;16.51;100.00
11077;BME280;5591;42.626;23.380;2023-04-25T07:03:10;93345.44;;;16.35;100.00
11077;BME280;5591;42.626;23.380;2023-04-25T07:05:38;93349.16;;;17.20;100.00
11077;BME280;5591;42.626;23.380;2023-04-25T07:08:05;93343.66;;;17.79;100.00
11077;BME280;5591;42.626;23.380;2023-04-25T07:10:32;93354.09;;;18.27;100.00
11077;BME280;5591;42.626;23.380;2023-04-25T07:12:58;93337.94;;;18.80;100.00
11077;BME280;5591;42.626;23.380;2023-04-25T07:15:25;93340.38;;;18.92;100.00
11077;BME280;5591;42.626;23.380;2023-04-25T07:17:52;93345.13;;;18.85;100.00
11077;BME280;5591;42.626;23.380;2023-04-25T07:20:19;93350.50;;;18.95;100.00
11077;BME280;5591;42.626;23.380;2023-04-25T07:22:47;93349.19;;;18.97;100.00
11077;BME280;5591;42.626;23.380;2023-04-25T07:25:15;93342.41;;;18.70;100.00
11077;BME280;5591;42.626;23.380;2023-04-25T07:27:42;93334.16;;;18.66;100.00
11077;BME280;5591;42.626;23.380;2023-04-25T07:30:09;93339.41;;;17.78;100.00
11077;BME280;5591;42.626;23.380;2023-04-25T07:32:36;93341.69;;;17.70;100.00
11077;BME280;5591;42.626;23.380;2023-04-25T07:35:04;93338.34;;;18.57;100.00
11077;BME280;5591;42.626;23.380;2023-04-25T07:37:32;93334.78;;;18.93;100.00
11077;BME280;5591;42.626;23.380;2023-04-25T07:40:00;93342.91;;;19.23;100.00
11077;BME280;5591;42.626;23.380;2023-04-25T07:42:29;93345.31;;;18.73;100.00
11077;BME280;5591;42.626;23.380;2023-04-25T07:44:56;93340.28;;;18.72;100.00
11077;BME280;5591;42.626;23.380;2023-04-25T07:47:22;93330.94;;;19.26;100.00
11077;BME280;5591;42.626;23.380;2023-04-25T07:49:50;93336.94;;;20.08;95.60
11077;BME280;5591;42.626;23.380;2023-04-25T07:52:16;93323.31;;;20.09;94.03
11077;BME280;5591;42.626;23.380;2023-04-25T07:54:43;93326.50;;;19.86;95.10
11077;BME280;5591;42.626;23.380;2023-04-25T07:57:12;93311.59;;;19.85;96.80
11077;BME280;5591;42.626;23.380;2023-04-25T07:59:39;93245.53;;;19.57;94.35
11077;BME280;5591;42.626;23.380;2023-04-25T08:02:06;93323.78;;;19.41;98.39
11077;BME280;5591;42.626;23.380;2023-04-25T08:04:32;93329.69;;;19.63;96.64
11077;BME280;5591;42.626;23.380;2023-04-25T08:06:59;93312.88;;;20.37;89.85
11077;BME280;5591;42.626;23.380;2023-04-25T08:09:26;93321.97;;;20.22;86.99
11077;BME280;5591;42.626;23.380;2023-04-25T08:11:54;93321.44;;;20.39;85.00
11077;BME280;5591;42.626;23.380;2023-04-25T08:14:22;93239.16;;;19.43;91.48
11077;BME280;5591;42.626;23.380;2023-04-25T08:16:49;93311.56;;;19.95;93.84
11077;BME280;5591;42.626;23.380;2023-04-25T08:19:16;93323.28;;;19.64;90.68
11077;BME280;5591;42.626;23.380;2023-04-25T08:21:43;93317.38;;;20.52;84.96
11077;BME280;5591;42.626;23.380;2023-04-25T08:24:09;93317.41;;;20.47;87.92
11077;BME280;5591;42.626;23.380;2023-04-25T08:26:36;93321.09;;;20.66;88.56
11077;BME280;5591;42.626;23.380;2023-04-25T08:29:04;93313.97;;;21.20;84.03
11077;BME280;5591;42.626;23.380;2023-04-25T08:31:33;93301.69;;;21.67;79.92
11077;BME280;5591;42.626;23.380;2023-04-25T08:33:59;93306.88;;;20.95;84.74
11077;BME280;5591;42.626;23.380;2023-04-25T08:36:26;93282.19;;;21.18;81.89
11077;BME280;5591;42.626;23.380;2023-04-25T08:38:54;93289.72;;;21.55;76.65
11077;BME280;5591;42.626;23.380;2023-04-25T08:41:21;93300.53;;;21.78;73.93
11077;BME280;5591;42.626;23.380;2023-04-25T08:43:48;93214.34;;;21.29;71.63
11077;BME280;5591;42.626;23.380;2023-04-25T08:46:17;93300.63;;;22.82;68.00
11077;BME280;5591;42.626;23.380;2023-04-25T08:48:46;93300.81;;;23.14;65.40
11077;BME280;5591;42.626;23.380;2023-04-25T08:51:17;93326.59;;;23.28;62.63
11077;BME280;5591;42.626;23.380;2023-04-25T08:53:49;93259.69;;;23.05;56.94
11077;BME280;5591;42.626;23.380;2023-04-25T08:56:17;93294.78;;;22.80;58.38
11077;BME280;5591;42.626;23.380;2023-04-25T08:58:48;93299.81;;;21.63;71.43
11077;BME280;5591;42.626;23.380;2023-04-25T09:01:15;93309.69;;;19.61;74.03
11077;BME280;5591;42.626;23.380;2023-04-25T09:03:42;93325.34;;;19.22;79.51
11077;BME280;5591;42.626;23.380;2023-04-25T09:06:11;93308.41;;;20.03;73.90
11077;BME280;5591;42.626;23.380;2023-04-25T09:08:39;93284.88;;;20.45;69.45
11077;BME280;5591;42.626;23.380;2023-04-25T09:11:06;93277.75;;;20.01;68.79
11077;BME280;5591;42.626;23.380;2023-04-25T09:13:33;93298.53;;;20.24;65.79
11077;BME280;5591;42.626;23.380;2023-04-25T09:16:00;93299.97;;;21.38;63.33
11077;BME280;5591;42.626;23.380;2023-04-25T09:18:28;93284.72;;;21.43;70.27
11077;BME280;5591;42.626;23.380;2023-04-25T09:20:56;93294.78;;;21.13;75.37
11077;BME280;5591;42.626;23.380;2023-04-25T09:23:24;93292.06;;;21.18;79.03
11077;BME280;5591;42.626;23.380;2023-04-25T09:25:52;93283.53;;;21.21;77.90
11077;BME280;5591;42.626;23.380;2023-04-25T09:28:23;93289.19;;;21.14;76.93
11077;BME280;5591;42.626;23.380;2023-04-25T09:30:55;93280.63;;;21.12;74.84
11077;BME280;5591;42.626;23.380;2023-04-25T09:33:28;93263.28;;;21.53;68.53
11077;BME280;5591;42.626;23.380;2023-04-25T09:36:01;93280.06;;;21.59;68.00
11077;BME280;5591;42.626;23.380;2023-04-25T09:38:30;93280.44;;;20.99;73.08
11077;BME280;5591;42.626;23.380;2023-04-25T09:40:58;93269.25;;;20.92;82.78
11077;BME280;5591;42.626;23.380;2023-04-25T09:43:26;93280.88;;;21.16;82.38
11077;BME280;5591;42.626;23.380;2023-04-25T09:45:53;93272.94;;;21.49;80.28
11077;BME280;5591;42.626;23.380;2023-04-25T09:48:24;93294.16;;;20.57;87.92
11077;BME280;5591;42.626;23.380;2023-04-25T09:51:04;93295.25;;;20.61;87.48
11077;BME280;5591;42.626;23.380;2023-04-25T09:53:33;93292.13;;;19.60;95.52
11077;BME280;5591;42.626;23.380;2023-04-25T09:56:03;93278.75;;;20.44;91.23
11077;BME280;5591;42.626;23.380;2023-04-25T09:58:31;93241.19;;;20.31;85.65
11077;BME280;5591;42.626;23.380;2023-04-25T10:01:00;93276.41;;;21.01;88.08
11077;BME280;5591;42.626;23.380;2023-04-25T10:03:29;93277.75;;;21.04;82.84
11077;BME280;5591;42.626;23.380;2023-04-25T10:05:58;93278.81;;;21.03;77.64
11077;BME280;5591;42.626;23.380;2023-04-25T10:08:30;93277.47;;;21.05;84.13
11077;BME280;5591;42.626;23.380;2023-04-25T10:11:00;93258.00;;;21.43;80.11
11077;BME280;5591;42.626;23.380;2023-04-25T10:13:29;93272.88;;;21.54;77.94
11077;BME280;5591;42.626;23.380;2023-04-25T10:15:57;93268.88;;;21.57;73.01
11077;BME280;5591;42.626;23.380;2023-04-25T10:18:25;93267.47;;;21.69;72.62
11077;BME280;5591;42.626;23.380;2023-04-25T10:20:53;93263.47;;;21.72;78.02
11077;BME280;5591;42.626;23.380;2023-04-25T10:23:21;93252.69;;;22.62;74.43
11077;BME280;5591;42.626;23.380;2023-04-25T10:25:49;93287.38;;;20.95;75.82
11077;BME280;5591;42.626;23.380;2023-04-25T10:28:17;93286.59;;;18.75;72.97
11077;BME280;5591;42.626;23.380;2023-04-25T10:30:58;93279.16;;;18.72;70.74
11077;BME280;5591;42.626;23.380;2023-04-25T10:33:33;93268.50;;;17.79;61.02
11077;BME280;5591;42.626;23.380;2023-04-25T10:36:09;93258.34;;;17.71;62.75
11077;BME280;5591;42.626;23.380;2023-04-25T10:38:37;93267.91;;;19.71;63.54
11077;BME280;5591;42.626;23.380;2023-04-25T10:41:05;93270.53;;;20.21;61.85
11077;BME280;5591;42.626;23.380;2023-04-25T10:43:36;93276.78;;;18.75;57.59
11077;BME280;5591;42.626;23.380;2023-04-25T10:46:16;93248.06;;;18.77;56.00
11077;BME280;5591;42.626;23.380;2023-04-25T10:48:48;93270.03;;;19.44;56.51
11077;BME280;5591;42.626;23.380;2023-04-25T10:51:17;93261.25;;;19.59;56.78
11077;BME280;5591;42.626;23.380;2023-04-25T10:53:44;93261.03;;;18.59;55.83
11077;BME280;5591;42.626;23.380;2023-04-25T10:56:16;93271.25;;;18.97;60.11
11077;BME280;5591;42.626;23.380;2023-04-25T10:58:45;93283.44;;;18.88;78.62
11077;BME280;5591;42.626;23.380;2023-04-25T11:01:13;93277.44;;;17.63;99.89
11077;BME280;5591;42.626;23.380;2023-04-25T11:03:41;93283.66;;;18.20;96.46
11077;BME280;5591;42.626;23.380;2023-04-25T11:06:17;93289.13;;;19.16;90.70
11077;BME280;5591;42.626;23.380;2023-04-25T11:08:48;93306.94;;;18.49;90.16
11077;BME280;5591;42.626;23.380;2023-04-25T11:11:16;93296.09;;;19.32;86.30
11077;BME280;5591;42.626;23.380;2023-04-25T11:13:47;93285.47;;;19.77;82.37
11077;BME280;5591;42.626;23.380;2023-04-25T11:16:14;93268.91;;;20.45;69.55
11077;BME280;5591;42.626;23.380;2023-04-25T11:18:42;93272.16;;;20.07;63.60
11077;BME280;5591;42.626;23.380;2023-04-25T11:21:08;93267.09;;;20.99;58.17
11077;BME280;5591;42.626;23.380;2023-04-25T11:23:36;93265.94;;;21.58;54.74
11077;BME280;5591;42.626;23.380;2023-04-25T11:26:03;93205.06;;;21.22;55.98
11077;BME280;5591;42.626;23.380;2023-04-25T11:28:30;93240.09;;;22.68;55.46
11077;BME280;5591;42.626;23.380;2023-04-25T11:30:58;93200.78;;;23.42;51.61
11077;BME280;5591;42.626;23.380;2023-04-25T11:33:25;93248.03;;;24.66;47.78
11077;BME280;5591;42.626;23.380;2023-04-25T11:35:53;93253.38;;;25.06;46.95
11077;BME280;5591;42.626;23.380;2023-04-25T11:38:21;93251.69;;;24.56;50.33
11077;BME280;5591;42.626;23.380;2023-04-25T11:40:50;93248.34;;;23.68;52.89
11077;BME280;5591;42.626;23.380;2023-04-25T11:43:17;93269.16;;;22.51;54.90
11077;BME280;5591;42.626;23.380;2023-04-25T11:45:46;93272.41;;;21.47;59.61
11077;BME280;5591;42.626;23.380;2023-04-25T11:48:15;93264.84;;;21.21;63.88
11077;BME280;5591;42.626;23.380;2023-04-25T11:50:42;93259.16;;;20.89;66.96
11077;BME280;5591;42.626;23.380;2023-04-25T11:53:09;93251.03;;;20.40;75.85
11077;BME280;5591;42.626;23.380;2023-04-25T11:55:36;93274.81;;;19.57;81.66
11077;BME280;5591;42.626;23.380;2023-04-25T11:58:04;93286.00;;;17.44;100.00
11077;BME280;5591;42.626;23.380;2023-04-25T12:00:31;93279.97;;;15.93;100.00
11077;BME280;5591;42.626;23.380;2023-04-25T12:02:58;93355.63;;;14.61;100.00
11077;BME280;5591;42.626;23.380;2023-04-25T12:05:28;93315.78;;;13.88;100.00
11077;BME280;5591;42.626;23.380;2023-04-25T12:07:56;93293.41;;;13.45;100.00
11077;BME280;5591;42.626;23.380;2023-04-25T12:10:24;93229.56;;;13.77;100.00
11077;BME280;5591;42.626;23.380;2023-04-25T12:12:52;93283.47;;;14.72;100.00
11077;BME280;5591;42.626;23.380;2023-04-25T12:15:23;93274.41;;;14.95;100.00
11077;BME280;5591;42.626;23.380;2023-04-25T12:17:53;93272.38;;;15.14;100.00
11077;BME280;5591;42.626;23.380;2023-04-25T12:20:21;93260.84;;;15.69;100.00
11077;BME280;5591;42.626;23.380;2023-04-25T12:22:52;93253.94;;;16.44;100.00
11077;BME280;5591;42.626;23.380;2023-04-25T12:25:35;93237.38;;;16.80;100.00
11077;BME280;5591;42.626;23.380;2023-04-25T12:28:16;93239.63;;;17.20;100.00
11077;BME280;5591;42.626;23.380;2023-04-25T12:30:58;93238.09;;;17.60;100.00
11077;BME280;5591;42.626;23.380;2023-04-25T12:33:27;93233.00;;;17.90;100.00
11077;BME280;5591;42.626;23.380;2023-04-25T12:35:54;93237.31;;;18.42;100.00
11077;BME280;5591;42.626;23.380;2023-04-25T12:38:23;93224.06;;;18.62;99.25
11077;BME280;5591;42.626;23.380;2023-04-25T12:40:51;93232.25;;;18.46;83.52
11077;BME280;5591;42.626;23.380;2023-04-25T12:43:17;93242.09;;;18.50;90.29
11077;BME280;5591;42.626;23.380;2023-04-25T12:45:44;93259.00;;;18.29;91.67
11077;BME280;5591;42.626;23.380;2023-04-25T12:48:11;93252.34;;;17.18;94.13
11077;BME280;5591;42.626;23.380;2023-04-25T12:50:38;93287.44;;;17.03;100.00
11077;BME280;5591;42.626;23.380;2023-04-25T12:53:06;93285.00;;;18.27;92.93
11077;BME280;5591;42.626;23.380;2023-04-25T12:55:34;93288.94;;;17.42;93.68